Hovedside
METAR-TAF:

METAR-TAF

Lufthavner :

Kunming Changshui internasjonale lufthavn

Kunming, Kina

breddegrad: 25-01N, lengdegrad: 102-41E, høyde over havet: 1892 m

Gjeldene værobservasjon

Denne rapporten ble laget for 18 minutter siden, klokken 04:00 UTC
Vind 16 kt fra Sørvest
Temperatur 19°C
Luftfuktighet 56%
Trykk 1025 hPa
Sikt 10 km eller mer
Spredte skyer i en høyde av 2600 ft

METAR: ZPPP 240400Z 22008MPS 9999 SCT026 19/10 Q1025 NOSIG

Tid: 12:18 (04:18 UTC)

Varsel

Denne rapporten ble laget for 9 timer og 9 minutter siden, klokken 19:09 UTC
Varsel gyldig fra 24. klokken 00 UTC til 24. klokken 24 UTC
Vind 8 kt fra Sør-sørvest
Sikt 10 km eller mer
Spredte skyer i en høyde av 2000 ft
Brutte skyer i en høyde av 3600 ft

TAF: ZPPP 231909Z 2400/2424 21004MPS 9999 SCT020 BKN036 TX18/2408Z TN12/2423Z

Værobservasjoner og værvarsel for over 4000 flyplasser (METAR- og TAF-rapporter).

Tilgjengelige stasjoner er representert av de røde og gule prikkene på kartet.

Hold musepekeren over prikken for å se navnet på stasjonen.

Klikk så for å se værobservasjoner og -varsler.

For å forandre kartet kan du klikke på den grønne knappen med svart kryss for å zoome inn, på den grønne knappen med strek for å zoome ut, eller på de grønne pilene for å se tilstøtende kart.


METAR-TAF: